• °C
  • Pobieranie danych...
wx


SEKCJA WYDRUKÓW, pokaż »

TAF EPBY 240530Z 2406/2506 20007KT 4000 BR OVC008
TEMPO 2406/2420 2000 -DZRA BR BKN003
PROB30 TEMPO 2406/2409 0500 FG OVC002
BECMG 2416/2418 27010KT
BECMG 2420/2422 8000 -RA BKN012=

TAF EPGD 240530Z 2406/2506 24010KT 7000 OVC005
TEMPO 2406/2413 3000 BR BKN002
PROB30 TEMPO 2406/2410 0500 FG OVC001
BECMG 2414/2417 SCT007 BKN015
PROB40 TEMPO 2416/2506 27015G25KT -RA BKN007=

TAF EPKK 240830Z 2409/2509 VRB02KT CAVOK
FM242200 24005KT 4000 -SN BR BKN012
TEMPO 2422/2507 2000 -SN BR OVC005
PROB30 TEMPO 2501/2507 1200 -SG -FZDZ OVC002=

TAF EPKT 240530Z 2406/2506 VRB02KT 2500 BR BKN020
BECMG 2406/2408 CAVOK
TEMPO 2421/2506 2000 -SN -RASN BKN008
PROB40 TEMPO 2501/2506 1000 -FZDZ BR BKN002
BECMG 2503/2506 27010KT=

TAF EPLB 240530Z 2406/2506 VRB02KT CAVOK
BECMG 2421/2423 24010KT 4000 -SN BR BKN010
TEMPO 2423/2506 2000 BR BKN003=

TAF EPLL 240530Z 2406/2506 VRB04KT 7000 BKN020
PROB40 2406/2408 3000 BR BKN012
BECMG 2408/2410 20010KT
BECMG 2413/2416 BKN014
TEMPO 2416/2420 4000 -SN -SNRA BR BKN008
BECMG 2420/2422 26010KT 3000 -RASN BR BKN005
PROB40 TEMPO 2421/2506 1000 -FZDZ BR BKN002=

TAF EPMO 240530Z 2406/2506 18005KT CAVOK
BECMG 2415/2417 BKN014
TEMPO 2418/2421 3000 -SN -SNRA BR BKN008
BECMG 2421/2424 26010KT 4000 -RASN BR BKN005
PROB40 TEMPO 2421/2506 1000 -FZDZ BR BKN002=

TAF AMD EPPO 240900Z 2409/2506 22005KT 6000 OVC010
TEMPO 2409/2421 2000 -RADZ BR OVC004
BECMG 2421/2424 28010KT BKN015=

TAF AMD EPRZ 240800Z 2408/2506 VRB02KT 3000 BR BKN008
BECMG 2408/2411 CAVOK
TEMPO 2501/2506 2000 SN BKN008
BECMG 2503/2506 27010KT=

TAF AMD EPRZ 240804Z 2408/2506 VRB02KT 3000 BR BKN008
BECMG 2408/2411 CAVOK
TEMPO 2501/2506 2000 SN BKN008
BECMG 2503/2506 27010KT=

TAF EPSC 240530Z 2406/2506 VRB03KT 1500 BR SCT001 BKN003
TEMPO 2406/2409 0400 DZ FG BKN001
BECMG 2409/2411 27010KT 7000 SCT008 BKN015
TEMPO 2412/2506 -RA BKN007
PROB40 TEMPO 2423/2506 4000 -RADZ BR BKN003=

TAF EPWA 240830Z 2409/2509 18006KT CAVOK
BECMG 2414/2417 BKN014
TEMPO 2417/2422 3000 -SN -SNRA BR BKN008
BECMG 2421/2424 26010KT 4000 -SN -SNRA BR BKN005
PROB40 TEMPO 2421/2506 1000 -FZDZ BR BKN002=

TAF AMD EPWR 240936Z 2409/2509 17002KT 9999 BKN003 OVC006
TEMPO 2409/2412 2000 -DZ BR
BECMG 2412/2414 BKN012
TEMPO 2414/2417 BKN017
BECMG 2417/2420 4000 BR BKN006
TEMPO 2420/2505 1500 -RADZ -RA BR BKN003
PROB30 2421/2503 0700 FG
BECMG 2500/2503 29010KT
BECMG 2505/2508 9999 BKN017=



Serwisy IMGW-PIB